Time;durP1;ratioP1;P1;durP2;ratioP2;P2;SDS_P1;SDS_P2;PMS_P1;PMS_P2;Temp;Humidity;BMP_temperature;BMP_pressure;BME280_temperature;BME280_humidity;BME280_pressure;Samples;Min_cycle;Max_cycle;Signal;HPM_P1;HPM_P2
2023/08/16 00:01:42;;;;;;;0.10;0.10;;;;;;;19.55;100.00;99651.44;5093033;28;20210;-56
2023/08/16 00:04:30;;;;;;;0.10;0.10;;;;;;;19.39;100.00;99640.41;5092744;28;20222;-56
2023/08/16 00:07:17;;;;;;;0.10;0.10;;;;;;;19.42;100.00;99638.31;5091535;28;20191;-56
2023/08/16 00:10:04;;;;;;;0.00;0.00;;;;;;;19.43;100.00;99647.22;5092998;28;20316;-56
2023/08/16 00:12:51;;;;;;;0.10;0.10;;;;;;;19.40;100.00;99639.44;5093195;28;20674;-56
2023/08/16 00:15:38;;;;;;;0.10;0.10;;;;;;;19.46;100.00;99278.81;5093175;28;20237;-56
2023/08/16 00:18:25;;;;;;;0.10;0.10;;;;;;;19.37;100.00;99272.50;5093091;28;20314;-56
2023/08/16 00:21:13;;;;;;;0.10;0.10;;;;;;;19.28;100.00;99251.94;5091633;28;20237;-56
2023/08/16 00:24:00;;;;;;;0.00;0.00;;;;;;;19.29;100.00;99255.47;5092433;28;20281;-56
2023/08/16 00:26:47;;;;;;;0.10;0.10;;;;;;;19.34;100.00;99259.41;5092767;28;20569;-56
2023/08/16 00:29:34;;;;;;;0.10;0.10;;;;;;;19.34;100.00;99259.41;5092839;28;20266;-56
2023/08/16 00:32:21;;;;;;;0.10;0.10;;;;;;;19.32;100.00;99253.34;5092685;28;20199;-56
2023/08/16 00:35:08;;;;;;;0.10;0.10;;;;;;;19.38;100.00;99254.56;5092549;28;20198;-56
2023/08/16 00:37:58;;;;;;;0.10;0.10;;;;;;;19.43;100.00;99261.16;5089885;28;20284;-57
2023/08/16 00:40:48;;;;;;;0.10;0.10;;;;;;;19.35;100.00;99253.03;5092677;28;20195;-56
2023/08/16 00:43:35;;;;;;;0.00;0.00;;;;;;;19.43;100.00;99255.81;5091463;28;20223;-56
2023/08/16 00:46:23;;;;;;;0.10;0.10;;;;;;;19.34;100.00;99253.19;5092527;28;20273;-56
2023/08/16 00:49:09;;;;;;;0.00;0.00;;;;;;;19.26;100.00;99253.94;5092493;28;20190;-56
2023/08/16 00:51:57;;;;;;;0.10;0.10;;;;;;;19.30;100.00;99255.34;5090237;28;20225;-56
2023/08/16 00:54:45;;;;;;;0.10;0.10;;;;;;;19.48;100.00;99271.44;5093902;28;20229;-56
2023/08/16 00:57:32;;;;;;;0.10;0.10;;;;;;;19.37;100.00;99263.59;5095459;28;20331;-56
2023/08/16 01:00:18;;;;;;;0.10;0.10;;;;;;;19.42;100.00;99267.53;5095626;28;20190;-56
2023/08/16 01:03:05;;;;;;;0.00;0.00;;;;;;;19.26;100.00;99258.47;5096340;28;20211;-56
2023/08/16 01:05:53;;;;;;;0.00;0.00;;;;;;;19.36;100.00;99265.44;5096470;28;20268;-56
2023/08/16 01:08:40;;;;;;;0.10;0.10;;;;;;;19.26;100.00;99261.16;5096246;28;20274;-56
2023/08/16 01:11:34;;;;;;;0.10;0.10;;;;;;;19.23;100.00;99251.56;5096203;28;20194;-56
2023/08/16 01:14:29;;;;;;;0.00;0.00;;;;;;;19.30;100.00;99249.97;5096522;28;20191;-56
2023/08/16 01:17:17;;;;;;;0.10;0.10;;;;;;;19.38;100.00;99247.34;5096225;28;20257;-57
2023/08/16 01:20:07;;;;;;;0.00;0.00;;;;;;;19.29;100.00;99247.41;5096296;28;20203;-57
2023/08/16 01:23:04;;;;;;;0.10;0.10;;;;;;;19.39;100.00;99258.94;5094907;28;20309;-56
2023/08/16 01:26:10;;;;;;;0.10;0.10;;;;;;;19.55;100.00;99256.41;5096209;28;20763;-56
2023/08/16 01:29:00;;;;;;;0.10;0.10;;;;;;;19.51;100.00;99233.53;5095083;28;20319;-56
2023/08/16 01:31:47;;;;;;;0.10;0.10;;;;;;;19.43;100.00;99234.31;5096090;28;20195;-56
2023/08/16 01:34:33;;;;;;;0.03;0.03;;;;;;;19.53;100.00;99236.91;5094696;28;20272;-57
2023/08/16 01:37:21;;;;;;;0.10;0.10;;;;;;;19.49;100.00;99245.44;5094305;28;20227;-56
2023/08/16 01:40:09;;;;;;;0.10;0.10;;;;;;;19.64;100.00;99247.47;5094594;28;20274;-56
2023/08/16 01:42:57;;;;;;;0.00;0.00;;;;;;;19.63;100.00;99247.63;5094534;28;20378;-56
2023/08/16 01:45:47;;;;;;;0.10;0.10;;;;;;;19.61;100.00;99245.09;5095751;28;20195;-56
2023/08/16 01:48:36;;;;;;;0.10;0.10;;;;;;;19.64;100.00;99258.22;5095707;28;20209;-56
2023/08/16 01:51:24;;;;;;;0.10;0.10;;;;;;;19.55;100.00;99245.66;5094191;28;20191;-57
2023/08/16 01:54:12;;;;;;;0.00;0.00;;;;;;;19.61;100.00;99244.25;5095793;28;20687;-56
2023/08/16 01:56:59;;;;;;;0.10;0.10;;;;;;;19.65;100.00;99248.31;5095500;28;20282;-56
2023/08/16 01:59:46;;;;;;;0.00;0.00;;;;;;;19.56;100.00;99238.47;5094228;28;20223;-57
2023/08/16 02:02:34;;;;;;;0.10;0.10;;;;;;;19.60;100.00;99243.41;5094334;28;20284;-57
2023/08/16 02:05:21;;;;;;;0.10;0.10;;;;;;;19.58;100.00;99248.06;5093903;28;20264;-56
2023/08/16 02:08:10;;;;;;;0.10;0.10;;;;;;;19.61;100.00;99246.94;5093415;28;20199;-57
2023/08/16 02:10:57;;;;;;;0.10;0.10;;;;;;;19.56;100.00;99247.38;5094197;28;20238;-57
2023/08/16 02:13:45;;;;;;;0.10;0.10;;;;;;;19.58;100.00;99241.84;5094167;28;20207;-57
2023/08/16 02:16:32;;;;;;;0.00;0.00;;;;;;;19.63;100.00;99245.78;5094962;28;20198;-57
2023/08/16 02:19:20;;;;;;;0.03;0.03;;;;;;;19.77;100.00;99254.28;5094044;28;20686;-57
2023/08/16 02:22:07;;;;;;;0.00;0.00;;;;;;;19.73;100.00;99251.06;5093645;28;20203;-57
2023/08/16 02:24:55;;;;;;;0.10;0.10;;;;;;;19.69;100.00;99244.34;5093589;28;20214;-57
2023/08/16 02:27:43;;;;;;;0.10;0.10;;;;;;;19.71;100.00;99255.78;5093810;28;20202;-57
2023/08/16 02:30:29;;;;;;;0.10;0.10;;;;;;;19.69;100.00;99247.03;5094919;28;20195;-57
2023/08/16 02:33:16;;;;;;;0.10;0.10;;;;;;;19.73;100.00;99251.06;5094482;28;20203;-56
2023/08/16 02:36:05;;;;;;;0.03;0.03;;;;;;;19.72;100.00;99244.84;5092301;28;20233;-56
2023/08/16 02:38:52;;;;;;;0.10;0.10;;;;;;;19.75;100.00;99241.00;5094671;28;20370;-56
2023/08/16 02:41:39;;;;;;;0.00;0.00;;;;;;;19.75;100.00;99243.69;5094525;28;20298;-56
2023/08/16 02:44:26;;;;;;;0.10;0.10;;;;;;;19.77;100.00;99248.91;5093255;28;20734;-57
2023/08/16 02:47:12;;;;;;;0.10;0.10;;;;;;;19.71;100.00;99240.47;5094381;28;20194;-56
2023/08/16 02:50:00;;;;;;;0.10;0.10;;;;;;;19.73;100.00;99243.00;5093314;28;20317;-56
2023/08/16 02:52:48;;;;;;;0.10;0.10;;;;;;;19.72;100.00;99238.63;5093083;28;20560;-57
2023/08/16 02:55:35;;;;;;;0.10;0.10;;;;;;;19.81;100.00;99243.09;5094201;28;20233;-57
2023/08/16 02:58:22;;;;;;;0.10;0.10;;;;;;;19.85;100.00;99236.38;5094141;28;20290;-56
2023/08/16 03:01:08;;;;;;;0.10;0.10;;;;;;;19.84;100.00;99239.25;5094201;28;20219;-57
2023/08/16 03:03:55;;;;;;;0.10;0.10;;;;;;;19.87;100.00;99234.38;5094353;28;20206;-56
2023/08/16 03:06:42;;;;;;;0.10;0.10;;;;;;;19.81;100.00;99248.47;5092705;28;20216;-56
2023/08/16 03:09:30;;;;;;;0.00;0.00;;;;;;;19.87;100.00;99247.81;5094175;28;20217;-57
2023/08/16 03:12:17;;;;;;;0.10;0.10;;;;;;;19.83;100.00;99251.84;5092873;28;20203;-56
2023/08/16 03:15:05;;;;;;;0.10;0.10;;;;;;;19.79;100.00;99245.09;5093244;28;20194;-56
2023/08/16 03:17:52;;;;;;;0.10;0.10;;;;;;;19.82;100.00;99241.25;5093359;28;20194;-57
2023/08/16 03:20:39;;;;;;;0.10;0.10;;;;;;;19.78;100.00;99247.91;5092664;28;20199;-57
2023/08/16 03:23:28;;;;;;;0.10;0.10;;;;;;;19.78;100.00;99243.38;5092756;28;20270;-56
2023/08/16 03:26:16;;;;;;;0.10;0.10;;;;;;;19.77;100.00;99240.84;5092834;28;20232;-56
2023/08/16 03:29:05;;;;;;;0.00;0.00;;;;;;;19.78;100.00;99246.06;5092562;28;20306;-56
2023/08/16 03:31:54;;;;;;;0.10;0.10;;;;;;;19.91;100.00;99243.00;5092644;28;20257;-56
2023/08/16 03:34:42;;;;;;;0.10;0.10;;;;;;;19.84;100.00;99239.25;5093721;28;20675;-57
2023/08/16 03:37:31;;;;;;;0.10;0.10;;;;;;;19.86;100.00;99248.00;5091843;28;20316;-57
2023/08/16 03:40:18;;;;;;;0.10;0.10;;;;;;;19.81;100.00;99243.09;5092759;28;20202;-57
2023/08/16 03:43:06;;;;;;;0.10;0.10;;;;;;;19.81;100.00;99240.41;5092817;28;20202;-57
2023/08/16 03:45:53;;;;;;;0.10;0.10;;;;;;;19.87;100.00;99246.97;5093203;28;20215;-57
2023/08/16 03:48:40;;;;;;;0.10;0.10;;;;;;;19.80;100.00;99245.94;5092513;28;20199;-56
2023/08/16 03:51:28;;;;;;;0.00;0.00;;;;;;;19.73;100.00;99251.91;5091125;28;20198;-56
2023/08/16 03:54:14;;;;;;;0.10;0.10;;;;;;;19.73;100.00;99253.75;5093497;28;20198;-57
2023/08/16 03:57:02;;;;;;;0.10;0.10;;;;;;;19.76;100.00;99260.66;5093327;28;20198;-57
2023/08/16 03:59:52;;;;;;;0.03;0.03;;;;;;;19.84;100.00;99255.38;5093298;28;20210;-56
2023/08/16 04:02:38;;;;;;;0.10;0.10;;;;;;;19.79;100.00;99255.00;5092035;28;20217;-56
2023/08/16 04:05:26;;;;;;;0.10;0.10;;;;;;;19.80;100.00;99262.06;5091764;28;20214;-56
2023/08/16 04:08:13;;;;;;;0.00;0.00;;;;;;;19.77;100.00;99259.66;5091743;28;20194;-57
2023/08/16 04:11:01;;;;;;;0.10;0.10;;;;;;;19.85;100.00;99274.03;5092856;28;20195;-57
2023/08/16 04:13:48;;;;;;;0.10;0.10;;;;;;;19.80;100.00;99281.72;5093120;28;20190;-57
2023/08/16 04:16:36;;;;;;;0.10;0.10;;;;;;;19.81;100.00;99277.19;5092804;28;20190;-57
2023/08/16 04:19:23;;;;;;;0.10;0.10;;;;;;;19.92;100.00;99279.66;5091925;28;20287;-56
2023/08/16 04:22:10;;;;;;;0.10;0.10;;;;;;;19.92;100.00;99276.94;5091809;28;20198;-56
2023/08/16 04:24:57;;;;;;;0.10;0.10;;;;;;;19.97;100.00;99271.94;5092700;28;20211;-56
2023/08/16 04:27:45;;;;;;;0.10;0.10;;;;;;;20.00;100.00;99271.66;5091469;28;20209;-57
2023/08/16 04:30:32;;;;;;;0.10;0.10;;;;;;;19.98;100.00;99282.56;5091377;28;20719;-57
2023/08/16 04:33:20;;;;;;;0.00;0.00;;;;;;;20.10;100.00;99285.84;5091714;28;20728;-57
2023/08/16 04:36:07;;;;;;;0.10;0.10;;;;;;;20.02;100.00;99277.72;5091149;28;20655;-57
2023/08/16 04:38:54;;;;;;;0.10;0.10;;;;;;;20.05;100.00;99284.63;5092603;28;20202;-57
2023/08/16 04:41:41;;;;;;;0.10;0.10;;;;;;;20.04;100.00;99277.56;5092581;28;20298;-57
2023/08/16 04:44:29;;;;;;;0.00;0.00;;;;;;;20.06;100.00;99278.22;5091306;28;20237;-56
2023/08/16 04:47:16;;;;;;;0.10;0.10;;;;;;;20.10;100.00;99264.34;5091570;28;20198;-57
2023/08/16 04:50:06;;;;;;;0.10;0.10;;;;;;;20.18;100.00;99260.88;5091343;28;20199;-57
2023/08/16 04:52:53;;;;;;;0.00;0.00;;;;;;;20.12;100.00;99256.09;5090629;28;20746;-57
2023/08/16 04:55:43;;;;;;;0.00;0.00;;;;;;;20.17;100.00;99249.28;5091554;28;20195;-56
2023/08/16 04:58:30;;;;;;;0.10;0.10;;;;;;;20.17;100.00;99249.28;5092514;28;20211;-56
2023/08/16 05:01:19;;;;;;;0.10;0.10;;;;;;;20.26;100.00;99272.50;5091210;28;20202;-56
2023/08/16 05:04:08;;;;;;;0.10;0.10;;;;;;;20.23;100.00;99272.00;5063077;28;20199;-57
2023/08/16 05:06:57;;;;;;;0.10;0.10;;;;;;;20.22;100.00;99271.16;5089834;28;20227;-56
2023/08/16 05:09:44;;;;;;;0.10;0.10;;;;;;;20.24;100.00;99279.06;5091354;28;20195;-57
2023/08/16 05:12:31;;;;;;;0.10;0.10;;;;;;;20.17;100.00;99277.97;5091205;28;20274;-57
2023/08/16 05:15:18;;;;;;;0.10;0.10;;;;;;;20.24;100.00;99666.44;5092288;28;20191;-56
2023/08/16 05:18:05;;;;;;;0.10;0.10;;;;;;;20.42;100.00;99666.50;5092064;28;20258;-55
2023/08/16 05:20:56;;;;;;;0.10;0.10;;;;;;;20.31;100.00;99670.25;5090120;28;20194;-56
2023/08/16 05:23:45;;;;;;;0.10;0.10;;;;;;;20.47;100.00;99675.88;5092111;28;20234;-55
2023/08/16 05:26:31;;;;;;;0.10;0.10;;;;;;;20.46;100.00;99674.19;5091969;28;20349;-56
2023/08/16 05:29:18;;;;;;;0.10;0.10;;;;;;;20.55;100.00;99675.13;5092091;28;20195;-56
2023/08/16 05:32:05;;;;;;;0.10;0.10;;;;;;;20.67;100.00;99683.88;5092181;28;20198;-56
2023/08/16 05:34:53;;;;;;;0.10;0.10;;;;;;;20.63;100.00;99677.06;5092023;28;20301;-56
2023/08/16 05:37:40;;;;;;;0.10;0.10;;;;;;;20.64;100.00;99676.06;5090487;28;20237;-56
2023/08/16 05:40:28;;;;;;;0.03;0.03;;;;;;;20.66;100.00;99674.09;5092176;28;20198;-56
2023/08/16 05:43:15;;;;;;;0.10;0.10;;;;;;;20.65;100.00;99656.22;5094530;28;20191;-56
2023/08/16 05:46:02;;;;;;;0.10;0.10;;;;;;;20.90;100.00;99670.81;5095332;28;20222;-56
2023/08/16 05:48:49;;;;;;;0.07;0.07;;;;;;;21.10;100.00;99665.16;5095563;28;20198;-56
2023/08/16 05:51:36;;;;;;;0.10;0.10;;;;;;;20.87;100.00;99655.81;5094332;28;20191;-56
2023/08/16 05:54:23;;;;;;;0.10;0.10;;;;;;;21.18;100.00;99650.06;5095827;28;20199;-56
2023/08/16 05:57:11;;;;;;;0.10;0.10;;;;;;;21.25;100.00;99651.16;5095619;28;20190;-55
2023/08/16 05:59:58;;;;;;;0.10;0.10;;;;;;;21.64;100.00;99644.44;5095473;28;20300;-56
2023/08/16 06:02:47;;;;;;;0.10;0.10;;;;;;;21.47;100.00;99639.91;5095295;28;20183;-56
2023/08/16 06:05:34;;;;;;;0.10;0.10;;;;;;;21.59;100.00;99640.50;5095188;28;20257;-56
2023/08/16 06:08:22;;;;;;;0.10;0.10;;;;;;;21.45;100.00;99620.38;5095331;28;20641;-56
2023/08/16 06:11:09;;;;;;;0.10;0.10;;;;;;;21.34;100.00;99631.41;5095087;28;20222;-56
2023/08/16 06:13:58;;;;;;;0.10;0.10;;;;;;;21.50;100.00;99620.72;5095024;28;20207;-56
2023/08/16 06:16:45;;;;;;;0.10;0.10;;;;;;;21.51;100.00;99614.31;5095136;28;20741;-56
2023/08/16 06:19:32;;;;;;;0.10;0.10;;;;;;;21.58;100.00;99607.31;5094820;28;20198;-56
2023/08/16 06:22:19;;;;;;;0.10;0.10;;;;;;;21.58;100.00;99615.41;5093988;28;20240;-56
2023/08/16 06:25:07;;;;;;;0.10;0.10;;;;;;;21.48;100.00;99609.25;5095032;28;20195;-55
2023/08/16 06:27:54;;;;;;;0.08;0.08;;;;;;;21.48;100.00;99600.34;5094948;28;20264;-56
2023/08/16 06:30:42;;;;;;;0.10;0.10;;;;;;;21.58;100.00;99591.13;5095070;28;20205;-56
2023/08/16 06:33:29;;;;;;;0.00;0.00;;;;;;;21.71;100.00;99586.19;5094941;28;20269;-56
2023/08/16 06:36:16;;;;;;;0.00;0.00;;;;;;;22.05;100.00;99579.13;5093731;28;20218;-56
2023/08/16 06:39:03;;;;;;;0.10;0.10;;;;;;;21.90;100.00;99562.66;5094663;28;20198;-55
2023/08/16 06:41:50;;;;;;;0.10;0.10;;;;;;;21.91;100.00;99559.84;5094888;28;20211;-56
2023/08/16 06:44:36;;;;;;;0.00;0.00;;;;;;;22.19;100.00;99557.78;5094743;28;20203;-56
2023/08/16 06:47:25;;;;;;;0.00;0.00;;;;;;;22.36;100.00;99561.38;5094101;28;20709;-55
2023/08/16 06:50:13;;;;;;;0.10;0.10;;;;;;;22.41;100.00;99579.81;5094467;28;20207;-56
2023/08/16 06:52:59;;;;;;;0.10;0.10;;;;;;;22.34;100.00;99573.38;5093157;28;20237;-55
2023/08/16 06:55:46;;;;;;;0.10;0.10;;;;;;;22.23;100.00;99574.50;5094492;28;20186;-56
2023/08/16 06:58:33;;;;;;;0.00;0.00;;;;;;;22.53;100.00;99573.09;5094143;28;20284;-56
2023/08/16 07:01:20;;;;;;;0.00;0.00;;;;;;;22.51;100.00;99570.56;5094187;28;20202;-56
2023/08/16 07:04:08;;;;;;;0.00;0.00;;;;;;;22.88;100.00;99566.63;5094083;28;20203;-56
2023/08/16 07:06:55;;;;;;;0.10;0.10;;;;;;;23.12;100.00;99550.41;5092545;28;20218;-56
2023/08/16 07:09:42;;;;;;;0.10;0.10;;;;;;;23.42;100.00;99537.22;5093956;28;20210;-56
2023/08/16 07:12:29;;;;;;;0.10;0.10;;;;;;;23.29;100.00;99520.66;5093991;28;20249;-56
2023/08/16 07:15:16;;;;;;;0.10;0.10;;;;;;;23.34;100.00;99515.59;5093855;28;20253;-56
2023/08/16 07:18:03;;;;;;;0.00;0.00;;;;;;;23.70;100.00;99513.34;5093938;28;20257;-56
2023/08/16 07:20:52;;;;;;;0.03;0.03;;;;;;;24.06;100.00;99504.75;5092800;28;20202;-56
2023/08/16 07:23:38;;;;;;;0.10;0.10;;;;;;;24.80;100.00;99492.47;5093742;28;20329;-56
2023/08/16 07:26:25;;;;;;;0.10;0.10;;;;;;;24.84;100.00;99483.81;5093490;28;20210;-56
2023/08/16 07:29:12;;;;;;;0.00;0.00;;;;;;;24.32;100.00;99483.69;5093538;28;20310;-56
2023/08/16 07:32:00;;;;;;;0.10;0.10;;;;;;;24.23;100.00;99493.69;5093613;28;20211;-56
2023/08/16 07:34:46;;;;;;;0.05;0.05;;;;;;;24.01;100.00;99482.78;5093635;28;20202;-56
2023/08/16 07:37:35;;;;;;;0.00;0.00;;;;;;;23.66;100.00;99480.41;5091910;28;20244;-56
2023/08/16 07:40:21;;;;;;;0.10;0.10;;;;;;;23.59;100.00;99490.22;5093350;28;20194;-56
2023/08/16 07:43:08;;;;;;;0.00;0.00;;;;;;;23.64;100.00;99495.97;5093354;28;20207;-56
2023/08/16 07:45:56;;;;;;;0.10;0.10;;;;;;;23.58;100.00;99498.47;5093137;28;20888;-56
2023/08/16 07:48:43;;;;;;;0.10;0.10;;;;;;;23.70;100.00;99487.13;5093300;28;20213;-56
2023/08/16 07:51:30;;;;;;;0.00;0.00;;;;;;;23.91;100.00;99481.13;5092126;28;20190;-56
2023/08/16 07:54:18;;;;;;;0.10;0.10;;;;;;;24.48;100.00;99477.31;5093269;28;20195;-56
2023/08/16 07:57:05;;;;;;;0.00;0.00;;;;;;;24.75;100.00;99478.63;5093177;28;20282;-55
2023/08/16 07:59:53;;;;;;;0.00;0.00;;;;;;;24.79;100.00;99471.81;5093168;28;20694;-56
2023/08/16 08:02:40;;;;;;;0.10;0.10;;;;;;;24.76;100.00;99474.91;5092884;28;20203;-56
2023/08/16 08:05:42;;;;;;;0.00;0.00;;;;;;;24.82;100.00;99472.31;5092443;28;20199;-56
2023/08/16 08:08:29;;;;;;;0.10;0.10;;;;;;;24.22;100.00;99480.28;5092696;28;20272;-56
2023/08/16 08:11:17;;;;;;;0.10;0.10;;;;;;;24.39;100.00;99490.06;5092735;28;20274;-56
2023/08/16 08:14:04;;;;;;;0.00;0.00;;;;;;;24.25;100.00;99478.09;5092502;28;20707;-56
2023/08/16 08:16:52;;;;;;;0.00;0.00;;;;;;;24.33;100.00;99498.06;5092807;28;20289;-55
2023/08/16 08:19:39;;;;;;;0.00;0.00;;;;;;;24.29;100.00;99497.53;5092812;28;20199;-56
2023/08/16 08:22:25;;;;;;;0.10;0.10;;;;;;;24.46;100.00;99501.88;5091464;28;20199;-56
2023/08/16 08:25:12;;;;;;;0.00;0.00;;;;;;;24.74;100.00;99498.63;5092864;28;20206;-56
2023/08/16 08:28:01;;;;;;;0.00;0.00;;;;;;;24.90;100.00;99509.34;5092538;28;20243;-56
2023/08/16 08:30:48;;;;;;;0.00;0.00;;;;;;;24.99;100.00;99505.53;5092700;28;20198;-56
2023/08/16 08:33:35;;;;;;;0.00;0.00;;;;;;;24.65;100.00;99505.13;5092587;28;20237;-56
2023/08/16 08:36:22;;;;;;;0.10;0.10;;;;;;;24.33;100.00;99500.78;5091363;28;20302;-56
2023/08/16 08:39:09;;;;;;;0.00;0.00;;;;;;;24.09;100.00;99507.94;5092782;28;20309;-55
2023/08/16 08:41:56;;;;;;;0.10;0.10;;;;;;;24.01;100.00;99520.66;5092975;28;20199;-55
2023/08/16 08:44:45;;;;;;;0.10;0.10;;;;;;;24.14;100.00;99516.41;5092698;28;20261;-56
2023/08/16 08:47:32;;;;;;;0.00;0.00;;;;;;;24.10;100.00;99533.16;5092242;28;20257;-56
2023/08/16 08:50:19;;;;;;;0.00;0.00;;;;;;;24.35;100.00;99537.47;5092731;28;20230;-56
2023/08/16 08:53:06;;;;;;;0.03;0.03;;;;;;;24.39;100.00;99524.41;5091449;28;20214;-56
2023/08/16 08:55:56;;;;;;;0.00;0.00;;;;;;;24.50;100.00;99526.72;5092624;28;20276;-56
2023/08/16 08:58:46;;;;;;;0.00;0.00;;;;;;;24.03;100.00;99533.03;5091478;28;20276;-56
2023/08/16 09:01:42;;;;;;;0.05;0.05;;;;;;;23.95;100.00;99543.88;5092642;28;20615;-56
2023/08/16 09:04:30;;;;;;;0.10;0.10;;;;;;;24.08;100.00;99535.19;5092311;28;20195;-55
2023/08/16 09:07:19;;;;;;;0.00;0.00;;;;;;;23.84;100.00;99545.09;5090717;28;20248;-56
2023/08/16 09:10:06;;;;;;;0.00;0.00;;;;;;;23.84;100.00;99541.56;5092374;28;20206;-56
2023/08/16 09:12:54;;;;;;;0.10;0.10;;;;;;;23.77;100.00;99537.84;5092359;28;20183;-55
2023/08/16 09:15:41;;;;;;;0.00;0.00;;;;;;;23.78;100.00;99547.66;5091836;28;20228;-56
2023/08/16 09:18:30;;;;;;;0.00;0.00;;;;;;;23.61;100.00;99546.84;5096150;28;20190;-56
2023/08/16 09:21:18;;;;;;;0.10;0.10;;;;;;;23.69;100.00;99544.97;5094719;28;20302;-56
2023/08/16 09:24:07;;;;;;;0.10;0.10;;;;;;;23.86;100.00;99544.94;5095904;28;20211;-55
2023/08/16 09:26:54;;;;;;;0.10;0.10;;;;;;;24.27;100.00;99546.44;5095985;28;20225;-55
2023/08/16 09:29:41;;;;;;;0.00;0.00;;;;;;;24.70;100.00;99536.06;5095961;28;20257;-56
2023/08/16 09:32:30;;;;;;;0.00;0.00;;;;;;;25.75;100.00;99524.53;5095770;28;20186;-56
2023/08/16 09:35:19;;;;;;;0.10;0.10;;;;;;;25.82;100.00;99518.16;5095892;28;20195;-56
2023/08/16 09:38:06;;;;;;;0.10;0.10;;;;;;;26.38;100.00;99510.34;5094352;28;20222;-55
2023/08/16 09:40:56;;;;;;;0.10;0.10;;;;;;;26.35;100.00;99512.59;5095777;28;20187;-56
2023/08/16 09:43:43;;;;;;;0.00;0.00;;;;;;;25.70;100.00;99508.81;5095725;28;20289;-56
2023/08/16 09:46:30;;;;;;;0.00;0.00;;;;;;;25.56;100.00;99517.72;5095711;28;20285;-56
2023/08/16 09:49:17;;;;;;;0.00;0.00;;;;;;;25.29;100.00;99520.06;5095206;28;20210;-56
2023/08/16 09:52:10;;;;;;;0.10;0.10;;;;;;;25.16;100.00;99511.69;5094307;28;20276;-56
2023/08/16 09:55:01;;;;;;;0.00;0.00;;;;;;;25.16;100.00;99514.41;5095563;28;20253;-56
2023/08/16 09:57:48;;;;;;;0.00;0.00;;;;;;;24.96;100.00;99511.31;5095392;28;20260;-56
2023/08/16 10:00:35;;;;;;;0.10;0.10;;;;;;;24.89;100.00;99495.97;5095371;28;20243;-56
2023/08/16 10:03:22;;;;;;;0.00;0.00;;;;;;;24.80;100.00;99487.91;5095361;28;20198;-56
2023/08/16 10:06:10;;;;;;;0.10;0.10;;;;;;;24.53;100.00;99500.13;5094017;28;20283;-56
2023/08/16 10:09:04;;;;;;;0.00;0.00;;;;;;;24.49;100.00;99503.38;5095165;28;20265;-55
2023/08/16 10:11:52;;;;;;;0.10;0.10;;;;;;;24.55;100.00;99510.78;5095431;28;20313;-56
2023/08/16 10:14:39;;;;;;;0.10;0.10;;;;;;;24.38;100.00;99512.75;5095201;28;20671;-56
2023/08/16 10:17:28;;;;;;;0.00;0.00;;;;;;;25.00;100.00;99528.91;5095012;28;20257;-56
2023/08/16 10:20:23;;;;;;;0.00;0.00;;;;;;;25.29;100.00;99520.06;5094885;28;20190;-56
2023/08/16 10:23:13;;;;;;;0.10;0.10;;;;;;;25.29;100.00;99516.50;5094763;28;20309;-56
2023/08/16 10:26:04;;;;;;;0.10;0.10;;;;;;;25.85;100.00;99509.63;5094863;28;20676;-56
2023/08/16 10:28:53;;;;;;;0.00;0.00;;;;;;;26.12;100.00;99501.84;5093028;28;20222;-56
2023/08/16 10:31:44;;;;;;;0.00;0.00;;;;;;;26.45;100.00;99494.97;5094901;28;20198;-56
2023/08/16 10:34:31;;;;;;;0.00;0.00;;;;;;;26.74;100.00;99495.91;5094742;28;20190;-56
2023/08/16 10:37:18;;;;;;;0.00;0.00;;;;;;;26.71;100.00;99478.09;5093208;28;20229;-56
2023/08/16 10:40:16;;;;;;;0.00;0.00;;;;;;;27.03;100.00;99471.31;5094971;28;20670;-56
2023/08/16 10:43:08;;;;;;;0.00;0.00;;;;;;;27.54;100.00;99470.22;5094617;28;20213;-56
2023/08/16 10:45:56;;;;;;;0.00;0.00;;;;;;;27.95;100.00;99473.81;5094665;28;20195;-56
2023/08/16 10:48:43;;;;;;;0.00;0.00;;;;;;;28.57;100.00;99463.78;5093411;28;20230;-56
2023/08/16 10:51:30;;;;;;;0.00;0.00;;;;;;;30.22;100.00;99457.28;5093037;28;20278;-56
2023/08/16 10:54:17;;;;;;;0.00;0.00;;;;;;;31.98;100.00;99445.31;5094197;28;20199;-56
2023/08/16 10:57:07;;;;;;;0.00;0.00;;;;;;;33.41;100.00;99455.41;5094242;28;20202;-56
2023/08/16 11:00:05;;;;;;;0.00;0.00;;;;;;;34.31;100.00;99450.22;5094205;28;20305;-56
2023/08/16 11:02:55;;;;;;;0.00;0.00;;;;;;;34.68;92.70;99447.91;5094206;28;20679;-56
2023/08/16 11:05:44;;;;;;;0.00;0.00;;;;;;;34.03;97.80;99439.19;5093513;28;20202;-56
2023/08/16 11:08:31;;;;;;;0.00;0.00;;;;;;;33.02;100.00;99442.13;5093742;28;20214;-56
2023/08/16 11:11:18;;;;;;;0.00;0.00;;;;;;;31.78;100.00;99440.06;5093710;28;20191;-56
2023/08/16 11:14:05;;;;;;;0.00;0.00;;;;;;;31.27;100.00;99449.44;5093565;28;20261;-56
2023/08/16 11:16:56;;;;;;;0.00;0.00;;;;;;;31.34;100.00;99448.28;5093849;28;20313;-56
2023/08/16 11:19:43;;;;;;;0.00;0.00;;;;;;;31.38;100.00;99442.38;5094005;28;20223;-56
2023/08/16 11:22:30;;;;;;;0.00;0.00;;;;;;;32.39;100.00;99436.34;5092525;28;20257;-56
2023/08/16 11:25:17;;;;;;;0.00;0.00;;;;;;;32.85;100.00;99443.88;5093714;28;20203;-56
2023/08/16 11:28:05;;;;;;;0.00;0.00;;;;;;;35.02;92.31;99434.16;5093916;28;20222;-56
2023/08/16 11:30:56;;;;;;;0.00;0.00;;;;;;;38.01;72.91;99432.88;5093876;28;20187;-57
2023/08/16 11:33:44;;;;;;;0.00;0.00;;;;;;;37.49;68.24;99428.19;5093682;28;20688;-57
2023/08/16 11:36:31;;;;;;;0.00;0.00;;;;;;;38.30;66.04;99421.34;5092018;28;20223;-57
2023/08/16 11:39:18;;;;;;;0.00;0.00;;;;;;;35.97;74.51;99411.03;5092749;28;20261;-57
2023/08/16 11:42:05;;;;;;;0.00;0.00;;;;;;;35.52;80.25;99414.03;5093527;28;20252;-56
2023/08/16 11:44:52;;;;;;;0.00;0.00;;;;;;;35.12;82.81;99414.22;5093459;28;20260;-56
2023/08/16 11:47:40;;;;;;;0.00;0.00;;;;;;;35.96;82.35;99414.03;5093062;28;20257;-56
2023/08/16 11:50:28;;;;;;;0.00;0.00;;;;;;;36.00;85.34;99399.50;5093329;28;20233;-56
2023/08/16 11:53:17;;;;;;;0.00;0.00;;;;;;;37.02;75.83;99399.66;5093440;28;20294;-57
2023/08/16 11:56:07;;;;;;;0.00;0.00;;;;;;;38.01;68.01;99404.38;5092056;28;20717;-57
2023/08/16 11:58:55;;;;;;;0.00;0.00;;;;;;;37.17;75.06;99397.00;5091815;28;20269;-57
2023/08/16 12:01:42;;;;;;;0.00;0.00;;;;;;;38.70;64.51;99403.16;5093073;28;20686;-57
2023/08/16 12:04:29;;;;;;;0.00;0.00;;;;;;;39.50;59.27;99382.84;5093340;28;20205;-57
2023/08/16 12:07:18;;;;;;;0.00;0.00;;;;;;;38.38;65.56;99387.59;5091686;28;20309;-57
2023/08/16 12:10:05;;;;;;;0.00;0.00;;;;;;;40.33;57.40;99378.56;5092720;28;20216;-57
2023/08/16 12:12:53;;;;;;;0.00;0.00;;;;;;;41.69;52.43;99377.56;5092988;28;20194;-57
2023/08/16 12:15:41;;;;;;;0.00;0.00;;;;;;;39.76;55.00;99371.66;5092885;28;20281;-57
2023/08/16 12:18:28;;;;;;;0.00;0.00;;;;;;;41.62;48.62;99366.00;5093072;28;20218;-57
2023/08/16 12:21:15;;;;;;;0.00;0.00;;;;;;;44.35;44.21;99355.00;5091573;28;20694;-57
2023/08/16 12:24:03;;;;;;;0.00;0.00;;;;;;;42.56;47.32;99353.00;5092896;28;20686;-57
2023/08/16 12:26:50;;;;;;;0.00;0.00;;;;;;;40.50;54.75;99350.44;5092661;28;20674;-57
2023/08/16 12:29:37;;;;;;;0.00;0.00;;;;;;;41.50;47.98;99340.53;5092410;28;20217;-57
2023/08/16 12:32:24;;;;;;;0.00;0.00;;;;;;;43.20;44.03;99332.91;5092067;28;20202;-57
2023/08/16 12:35:11;;;;;;;0.00;0.00;;;;;;;44.43;41.99;99335.50;5091494;28;20312;-57
2023/08/16 12:37:58;;;;;;;0.00;0.00;;;;;;;43.77;43.18;99339.00;5090876;28;20746;-57
2023/08/16 12:40:46;;;;;;;0.00;0.00;;;;;;;42.89;45.51;99333.47;5092724;28;20236;-57
2023/08/16 12:43:33;;;;;;;0.00;0.00;;;;;;;41.64;47.29;99325.63;5092689;28;20198;-57
2023/08/16 12:46:26;;;;;;;0.00;0.00;;;;;;;42.17;45.80;99325.44;5092289;28;20249;-57
2023/08/16 12:49:13;;;;;;;0.00;0.00;;;;;;;41.90;45.10;99317.78;5092298;28;20709;-57
2023/08/16 12:52:03;;;;;;;0.00;0.00;;;;;;;42.92;44.59;99324.47;5094719;28;20209;-57
2023/08/16 12:54:50;;;;;;;0.00;0.00;;;;;;;43.45;42.67;99315.69;5096382;28;20190;-57
2023/08/16 12:57:39;;;;;;;0.00;0.00;;;;;;;42.71;44.04;99324.03;5096543;28;20267;-57
2023/08/16 13:00:27;;;;;;;0.00;0.00;;;;;;;42.20;43.33;99310.13;5096602;28;20223;-57
2023/08/16 13:03:14;;;;;;;0.00;0.00;;;;;;;41.71;47.60;99311.38;5096325;28;20202;-57